createdAt,value
2018-07-07T00:00:08.860Z,6.00
2018-07-07T00:05:38.188Z,6.03
2018-07-07T00:11:07.447Z,5.87
2018-07-07T00:16:37.440Z,5.12
2018-07-07T00:22:07.510Z,4.35
2018-07-07T00:27:36.943Z,5.10
2018-07-07T00:33:06.965Z,4.45
2018-07-07T00:38:36.236Z,4.03
2018-07-07T00:44:05.431Z,4.53
2018-07-07T00:49:34.682Z,4.95
2018-07-07T00:55:04.029Z,4.90
2018-07-07T01:00:46.633Z,4.62
2018-07-07T01:06:28.399Z,3.60
2018-07-07T01:11:57.349Z,4.90
2018-07-07T01:17:26.615Z,4.37
2018-07-07T01:22:55.769Z,4.87
2018-07-07T01:28:25.052Z,4.08
2018-07-07T01:33:54.357Z,4.30
2018-07-07T01:39:23.567Z,5.60
2018-07-07T01:44:52.782Z,4.85
2018-07-07T01:50:22.060Z,5.05
2018-07-07T01:55:51.439Z,4.90
2018-07-07T02:01:20.735Z,5.85
2018-07-07T02:06:49.975Z,5.85
2018-07-07T02:12:19.320Z,5.10
2018-07-07T02:17:48.618Z,4.58
2018-07-07T02:23:17.949Z,5.33
2018-07-07T02:28:47.283Z,5.45
2018-07-07T02:34:16.600Z,5.30
2018-07-07T02:39:46.111Z,5.90
2018-07-07T02:45:15.452Z,5.25
2018-07-07T02:50:44.743Z,5.37
2018-07-07T02:56:14.253Z,4.83
2018-07-07T03:01:43.472Z,4.95
2018-07-07T03:07:12.830Z,4.70
2018-07-07T03:12:42.241Z,5.65
2018-07-07T03:18:11.459Z,5.35
2018-07-07T03:23:40.712Z,4.80
2018-07-07T03:29:10.077Z,5.12
2018-07-07T03:34:39.393Z,4.90
2018-07-07T03:40:08.740Z,4.40
2018-07-07T03:45:37.968Z,4.28
2018-07-07T03:51:07.176Z,5.85
2018-07-07T03:56:36.464Z,5.53
2018-07-07T04:02:08.277Z,4.67
2018-07-07T04:07:37.487Z,5.42
2018-07-07T04:13:07.201Z,5.30
2018-07-07T04:18:36.727Z,6.10
2018-07-07T04:24:06.029Z,6.10
2018-07-07T04:29:35.322Z,5.77
2018-07-07T04:35:04.693Z,5.10
2018-07-07T04:40:33.929Z,5.92
2018-07-07T04:46:03.243Z,6.03
2018-07-07T04:51:32.414Z,5.75
2018-07-07T04:57:01.697Z,6.08
2018-07-07T05:02:30.915Z,6.12
2018-07-07T05:08:00.133Z,6.20
2018-07-07T05:13:29.355Z,7.10
2018-07-07T05:18:59.153Z,6.25
2018-07-07T05:24:28.432Z,7.00
2018-07-07T05:29:57.661Z,7.20
2018-07-07T05:35:27.025Z,6.50
2018-07-07T05:40:56.364Z,6.60
2018-07-07T05:46:25.607Z,6.62
2018-07-07T05:51:54.987Z,6.22
2018-07-07T05:57:24.340Z,5.80
2018-07-07T06:02:53.691Z,7.75
2018-07-07T06:08:23.467Z,6.92
2018-07-07T06:13:52.861Z,5.77
2018-07-07T06:19:22.115Z,6.60
2018-07-07T06:24:51.372Z,6.70
2018-07-07T06:30:20.631Z,5.20
2018-07-07T06:35:50.092Z,6.35
2018-07-07T06:41:19.771Z,6.20
2018-07-07T06:46:49.197Z,5.62
2018-07-07T06:52:18.472Z,5.40
2018-07-07T06:57:52.681Z,5.15
2018-07-07T07:03:22.200Z,6.55
2018-07-07T07:08:51.455Z,6.00
2018-07-07T07:14:20.735Z,5.33
2018-07-07T07:19:50.044Z,5.50
2018-07-07T07:25:19.261Z,6.00
2018-07-07T07:30:48.621Z,5.90
2018-07-07T07:36:49.040Z,6.15
2018-07-07T07:42:18.299Z,6.50
2018-07-07T07:47:47.698Z,5.45
2018-07-07T07:53:17.253Z,5.87
2018-07-07T07:58:46.611Z,6.28
2018-07-07T08:04:15.974Z,6.10
2018-07-07T08:09:45.630Z,4.97
2018-07-07T08:15:14.933Z,5.35
2018-07-07T08:20:44.321Z,4.97
2018-07-07T08:26:13.628Z,4.40
2018-07-07T08:31:42.902Z,4.83
2018-07-07T08:37:12.151Z,3.40
2018-07-07T08:42:42.680Z,2.77
2018-07-07T08:48:13.528Z,2.45
2018-07-07T08:53:42.911Z,3.20
2018-07-07T08:59:13.833Z,4.03
2018-07-07T09:04:43.250Z,4.00
2018-07-07T09:10:12.776Z,3.30
2018-07-07T09:15:42.012Z,3.52
2018-07-07T09:21:11.089Z,3.50
2018-07-07T09:26:40.323Z,3.45
2018-07-07T09:32:09.515Z,3.30
2018-07-07T09:37:38.932Z,4.13
2018-07-07T09:43:08.203Z,3.40
2018-07-07T09:48:37.651Z,3.30
2018-07-07T09:54:07.002Z,3.25
2018-07-07T09:59:37.460Z,3.40
2018-07-07T10:05:06.756Z,3.67
2018-07-07T10:10:36.248Z,3.03
2018-07-07T10:16:05.559Z,3.60
2018-07-07T10:21:34.875Z,3.20
2018-07-07T10:27:06.048Z,2.98
2018-07-07T10:32:36.425Z,3.20
2018-07-07T10:38:05.710Z,2.33
2018-07-07T10:43:34.955Z,3.00
2018-07-07T10:49:04.261Z,2.77
2018-07-07T10:54:33.635Z,2.73
2018-07-07T11:00:03.081Z,3.08
2018-07-07T11:05:32.501Z,3.13
2018-07-07T11:11:02.163Z,3.15
2018-07-07T11:16:34.805Z,2.40
2018-07-07T11:22:04.112Z,2.83
2018-07-07T11:27:33.689Z,2.47
2018-07-07T11:33:03.004Z,3.25
2018-07-07T11:38:33.344Z,2.60
2018-07-07T11:44:02.610Z,3.23
2018-07-07T11:49:31.851Z,2.70
2018-07-07T11:55:01.120Z,2.80
2018-07-07T12:00:30.386Z,3.37
2018-07-07T12:05:59.700Z,3.23
2018-07-07T12:11:29.044Z,2.50
2018-07-07T12:16:59.312Z,2.72
2018-07-07T12:22:28.631Z,2.27
2018-07-07T12:27:58.666Z,2.70
2018-07-07T12:33:27.971Z,3.20
2018-07-07T12:38:57.204Z,3.70
2018-07-07T12:44:28.533Z,2.90
2018-07-07T12:49:57.847Z,2.80
2018-07-07T12:55:27.194Z,3.03
2018-07-07T13:00:56.495Z,2.20
2018-07-07T13:06:25.719Z,2.60
2018-07-07T13:11:54.965Z,2.63
2018-07-07T13:17:24.280Z,2.80
2018-07-07T13:22:53.743Z,3.00
2018-07-07T13:28:30.823Z,2.80
2018-07-07T13:34:00.396Z,2.87
2018-07-07T13:39:29.999Z,3.10
2018-07-07T13:44:59.552Z,3.08
2018-07-07T13:50:28.820Z,3.00
2018-07-07T13:55:58.161Z,2.93
2018-07-07T14:01:27.356Z,3.60
2018-07-07T14:06:56.633Z,3.20
2018-07-07T14:12:26.582Z,2.60
2018-07-07T14:17:55.878Z,2.90
2018-07-07T14:23:25.177Z,3.20
2018-07-07T14:28:54.404Z,3.35
2018-07-07T14:34:23.769Z,2.80
2018-07-07T14:40:00.913Z,3.30
2018-07-07T14:45:31.208Z,3.10
2018-07-07T14:51:00.879Z,2.93
2018-07-07T14:56:30.409Z,3.43
2018-07-07T15:01:59.705Z,2.83
2018-07-07T15:07:29.017Z,3.50
2018-07-07T15:12:59.328Z,2.70
2018-07-07T15:18:28.666Z,3.03
2018-07-07T15:23:59.079Z,3.03
2018-07-07T15:29:28.429Z,3.93
2018-07-07T15:34:58.728Z,3.35
2018-07-07T15:40:27.920Z,3.30
2018-07-07T15:45:57.443Z,3.50
2018-07-07T15:51:26.722Z,3.80
2018-07-07T15:56:57.161Z,3.50
2018-07-07T16:02:26.676Z,4.00
2018-07-07T16:07:55.950Z,3.27
2018-07-07T16:13:25.213Z,3.30
2018-07-07T16:18:54.560Z,3.43
2018-07-07T16:24:25.021Z,3.73
2018-07-07T16:29:54.611Z,2.92
2018-07-07T16:35:23.946Z,3.10
2018-07-07T16:40:54.304Z,3.70
2018-07-07T16:46:23.742Z,3.60
2018-07-07T16:51:53.457Z,3.37
2018-07-07T16:57:25.569Z,3.37
2018-07-07T17:02:56.029Z,3.17
2018-07-07T17:08:27.623Z,2.65
2018-07-07T17:13:58.413Z,3.40
2018-07-07T17:19:28.048Z,3.85
2018-07-07T17:24:59.045Z,3.58
2018-07-07T17:30:28.574Z,3.15
2018-07-07T17:35:58.558Z,3.35
2018-07-07T17:41:27.887Z,3.10
2018-07-07T17:46:57.353Z,3.35
2018-07-07T17:52:26.726Z,3.00
2018-07-07T17:57:56.027Z,2.60
2018-07-07T18:03:25.317Z,3.10
2018-07-07T18:08:54.692Z,3.10
2018-07-07T18:14:24.008Z,2.77
2018-07-07T18:19:53.584Z,2.80
2018-07-07T18:25:23.218Z,2.93
2018-07-07T18:30:52.584Z,3.05
2018-07-07T18:36:22.053Z,3.10
2018-07-07T18:41:51.320Z,3.23
2018-07-07T18:47:20.713Z,3.17
2018-07-07T18:52:50.095Z,3.45
2018-07-07T18:58:20.525Z,3.77
2018-07-07T19:03:53.091Z,4.07
2018-07-07T19:09:22.608Z,3.30
2018-07-07T19:14:51.976Z,3.67
2018-07-07T19:20:26.817Z,3.83
2018-07-07T19:26:01.317Z,3.90
2018-07-07T19:31:32.047Z,3.60
2018-07-07T19:37:06.292Z,4.47
2018-07-07T19:42:35.711Z,5.22
2018-07-07T19:48:05.279Z,5.70
2018-07-07T19:53:40.536Z,5.73
2018-07-07T19:59:09.699Z,6.85
2018-07-07T20:04:39.040Z,6.22
2018-07-07T20:10:08.311Z,6.43
2018-07-07T20:15:54.512Z,7.00
2018-07-07T20:21:47.017Z,6.97
2018-07-07T20:28:21.391Z,6.50
2018-07-07T20:34:01.105Z,6.15
2018-07-07T20:39:33.250Z,7.72
2018-07-07T20:45:02.739Z,6.78
2018-07-07T20:50:32.069Z,7.70
2018-07-07T20:56:01.363Z,7.23
2018-07-07T21:01:33.109Z,6.80
2018-07-07T21:07:02.690Z,5.90
2018-07-07T21:12:32.132Z,6.10
2018-07-07T21:18:01.495Z,8.78
2018-07-07T21:23:30.947Z,6.90
2018-07-07T21:29:00.208Z,6.65
2018-07-07T21:34:29.796Z,7.08
2018-07-07T21:40:00.277Z,6.53
2018-07-07T21:45:29.762Z,6.43
2018-07-07T21:50:59.161Z,7.50
2018-07-07T21:56:28.683Z,7.60
2018-07-07T22:02:04.414Z,6.27
2018-07-07T22:07:40.704Z,6.67
2018-07-07T22:13:10.938Z,6.70
2018-07-07T22:18:40.261Z,5.55
2018-07-07T22:24:13.911Z,7.35
2018-07-07T22:29:43.122Z,7.03
2018-07-07T22:35:19.714Z,6.45
2018-07-07T22:40:49.057Z,6.90
2018-07-07T22:46:18.408Z,5.30
2018-07-07T22:51:47.787Z,5.57
2018-07-07T22:57:19.234Z,6.67
2018-07-07T23:02:48.507Z,6.80
2018-07-07T23:08:18.206Z,5.55
2018-07-07T23:13:47.504Z,5.83
2018-07-07T23:19:16.888Z,7.03
2018-07-07T23:24:46.195Z,6.70
2018-07-07T23:30:15.637Z,6.33
2018-07-07T23:35:45.086Z,6.35
2018-07-07T23:41:14.449Z,6.70
2018-07-07T23:46:43.782Z,6.75
2018-07-07T23:52:13.124Z,6.92
2018-07-07T23:57:43.523Z,6.47
